sensor_id;sensor_type;location;lat;lon;timestamp;P1;durP1;ratioP1;P2;durP2;ratioP2
78799;SDS011;68148;55.328;86.106;2024-03-08T00:00:22;11.23;;;5.32;;
78799;SDS011;68148;55.328;86.106;2024-03-08T00:02:59;10.52;;;5.28;;
78799;SDS011;68148;55.328;86.106;2024-03-08T00:05:26;16.33;;;5.78;;
78799;SDS011;68148;55.328;86.106;2024-03-08T00:07:52;22.73;;;6.30;;
78799;SDS011;68148;55.328;86.106;2024-03-08T00:10:17;19.23;;;6.03;;
78799;SDS011;68148;55.328;86.106;2024-03-08T00:12:44;19.63;;;7.85;;
78799;SDS011;68148;55.328;86.106;2024-03-08T00:15:10;10.75;;;4.80;;
78799;SDS011;68148;55.328;86.106;2024-03-08T00:17:37;25.55;;;6.95;;
78799;SDS011;68148;55.328;86.106;2024-03-08T00:20:03;15.85;;;6.10;;
78799;SDS011;68148;55.328;86.106;2024-03-08T00:22:29;16.83;;;6.00;;
78799;SDS011;68148;55.328;86.106;2024-03-08T00:24:55;19.67;;;7.55;;
78799;SDS011;68148;55.328;86.106;2024-03-08T00:27:21;18.08;;;6.78;;
78799;SDS011;68148;55.328;86.106;2024-03-08T00:29:47;17.45;;;7.70;;
78799;SDS011;68148;55.328;86.106;2024-03-08T00:32:12;20.20;;;7.07;;
78799;SDS011;68148;55.328;86.106;2024-03-08T00:34:38;15.55;;;6.60;;
78799;SDS011;68148;55.328;86.106;2024-03-08T00:37:04;21.48;;;7.03;;
78799;SDS011;68148;55.328;86.106;2024-03-08T00:39:30;21.00;;;7.95;;
78799;SDS011;68148;55.328;86.106;2024-03-08T00:41:56;16.73;;;7.15;;
78799;SDS011;68148;55.328;86.106;2024-03-08T00:44:22;24.52;;;8.20;;
78799;SDS011;68148;55.328;86.106;2024-03-08T00:46:47;22.05;;;8.50;;
78799;SDS011;68148;55.328;86.106;2024-03-08T00:49:13;19.02;;;8.27;;
78799;SDS011;68148;55.328;86.106;2024-03-08T00:51:39;25.17;;;8.13;;
78799;SDS011;68148;55.328;86.106;2024-03-08T00:54:05;23.77;;;8.65;;
78799;SDS011;68148;55.328;86.106;2024-03-08T00:56:31;26.88;;;9.30;;
78799;SDS011;68148;55.328;86.106;2024-03-08T00:58:56;23.90;;;8.75;;
78799;SDS011;68148;55.328;86.106;2024-03-08T01:01:22;26.25;;;8.05;;
78799;SDS011;68148;55.328;86.106;2024-03-08T01:03:48;25.80;;;7.85;;
78799;SDS011;68148;55.328;86.106;2024-03-08T01:06:14;15.35;;;5.85;;
78799;SDS011;68148;55.328;86.106;2024-03-08T01:08:41;24.13;;;7.82;;
78799;SDS011;68148;55.328;86.106;2024-03-08T01:11:06;21.58;;;6.75;;
78799;SDS011;68148;55.328;86.106;2024-03-08T01:13:33;12.10;;;5.25;;
78799;SDS011;68148;55.328;86.106;2024-03-08T01:15:58;12.88;;;5.95;;
78799;SDS011;68148;55.328;86.106;2024-03-08T01:18:24;19.83;;;5.88;;
78799;SDS011;68148;55.328;86.106;2024-03-08T01:20:50;13.80;;;5.30;;
78799;SDS011;68148;55.328;86.106;2024-03-08T01:23:16;12.50;;;5.72;;
78799;SDS011;68148;55.328;86.106;2024-03-08T01:25:43;17.23;;;6.25;;
78799;SDS011;68148;55.328;86.106;2024-03-08T01:28:09;18.45;;;5.85;;
78799;SDS011;68148;55.328;86.106;2024-03-08T01:30:35;17.10;;;6.38;;
78799;SDS011;68148;55.328;86.106;2024-03-08T01:33:00;11.85;;;4.75;;
78799;SDS011;68148;55.328;86.106;2024-03-08T01:35:26;17.63;;;6.57;;
78799;SDS011;68148;55.328;86.106;2024-03-08T01:37:52;22.90;;;7.88;;
78799;SDS011;68148;55.328;86.106;2024-03-08T01:40:18;18.63;;;6.78;;
78799;SDS011;68148;55.328;86.106;2024-03-08T01:42:46;22.83;;;6.85;;
78799;SDS011;68148;55.328;86.106;2024-03-08T01:45:12;14.05;;;6.32;;
78799;SDS011;68148;55.328;86.106;2024-03-08T01:47:44;13.73;;;5.93;;
78799;SDS011;68148;55.328;86.106;2024-03-08T01:50:10;16.98;;;6.00;;
78799;SDS011;68148;55.328;86.106;2024-03-08T01:52:36;17.20;;;6.50;;
78799;SDS011;68148;55.328;86.106;2024-03-08T01:55:17;15.30;;;6.25;;
78799;SDS011;68148;55.328;86.106;2024-03-08T01:57:43;26.30;;;9.32;;
78799;SDS011;68148;55.328;86.106;2024-03-08T02:00:11;22.40;;;9.02;;
78799;SDS011;68148;55.328;86.106;2024-03-08T02:02:37;21.40;;;8.05;;
78799;SDS011;68148;55.328;86.106;2024-03-08T02:05:03;22.42;;;7.32;;
78799;SDS011;68148;55.328;86.106;2024-03-08T02:07:30;23.88;;;8.30;;
78799;SDS011;68148;55.328;86.106;2024-03-08T02:09:56;22.58;;;8.02;;
78799;SDS011;68148;55.328;86.106;2024-03-08T02:12:22;27.40;;;9.50;;
78799;SDS011;68148;55.328;86.106;2024-03-08T02:14:49;25.00;;;10.65;;
78799;SDS011;68148;55.328;86.106;2024-03-08T02:17:15;24.02;;;9.20;;
78799;SDS011;68148;55.328;86.106;2024-03-08T02:19:41;27.95;;;10.27;;
78799;SDS011;68148;55.328;86.106;2024-03-08T02:22:07;25.88;;;8.95;;
78799;SDS011;68148;55.328;86.106;2024-03-08T02:24:32;30.35;;;8.80;;
78799;SDS011;68148;55.328;86.106;2024-03-08T02:26:59;21.42;;;8.93;;
78799;SDS011;68148;55.328;86.106;2024-03-08T02:29:25;19.88;;;7.80;;
78799;SDS011;68148;55.328;86.106;2024-03-08T02:31:51;22.65;;;9.43;;
78799;SDS011;68148;55.328;86.106;2024-03-08T02:34:17;24.23;;;9.55;;
78799;SDS011;68148;55.328;86.106;2024-03-08T02:36:43;29.08;;;9.07;;
78799;SDS011;68148;55.328;86.106;2024-03-08T02:39:08;20.65;;;6.60;;
78799;SDS011;68148;55.328;86.106;2024-03-08T02:41:34;26.58;;;9.05;;
78799;SDS011;68148;55.328;86.106;2024-03-08T02:44:01;31.60;;;10.52;;
78799;SDS011;68148;55.328;86.106;2024-03-08T02:46:27;30.55;;;10.40;;
78799;SDS011;68148;55.328;86.106;2024-03-08T02:48:53;26.48;;;9.27;;
78799;SDS011;68148;55.328;86.106;2024-03-08T02:51:19;26.33;;;9.60;;
78799;SDS011;68148;55.328;86.106;2024-03-08T02:53:44;21.05;;;7.78;;
78799;SDS011;68148;55.328;86.106;2024-03-08T02:56:10;26.10;;;8.88;;
78799;SDS011;68148;55.328;86.106;2024-03-08T02:58:36;26.42;;;9.75;;
78799;SDS011;68148;55.328;86.106;2024-03-08T03:01:03;30.88;;;10.40;;
78799;SDS011;68148;55.328;86.106;2024-03-08T03:03:28;26.92;;;9.98;;
78799;SDS011;68148;55.328;86.106;2024-03-08T03:05:55;31.63;;;10.38;;
78799;SDS011;68148;55.328;86.106;2024-03-08T03:08:21;17.15;;;7.47;;
78799;SDS011;68148;55.328;86.106;2024-03-08T03:10:47;29.63;;;11.55;;
78799;SDS011;68148;55.328;86.106;2024-03-08T03:13:13;21.00;;;7.93;;
78799;SDS011;68148;55.328;86.106;2024-03-08T03:15:39;15.48;;;5.18;;
78799;SDS011;68148;55.328;86.106;2024-03-08T03:18:05;26.45;;;9.00;;
78799;SDS011;68148;55.328;86.106;2024-03-08T03:20:34;25.02;;;8.43;;
78799;SDS011;68148;55.328;86.106;2024-03-08T03:23:00;26.00;;;8.70;;
78799;SDS011;68148;55.328;86.106;2024-03-08T03:25:26;24.83;;;10.07;;
78799;SDS011;68148;55.328;86.106;2024-03-08T03:27:52;25.20;;;9.93;;
78799;SDS011;68148;55.328;86.106;2024-03-08T03:30:18;22.60;;;8.57;;
78799;SDS011;68148;55.328;86.106;2024-03-08T03:32:45;18.38;;;7.32;;
78799;SDS011;68148;55.328;86.106;2024-03-08T03:35:12;21.42;;;8.25;;
78799;SDS011;68148;55.328;86.106;2024-03-08T03:37:40;32.85;;;9.02;;
78799;SDS011;68148;55.328;86.106;2024-03-08T03:40:06;29.00;;;10.45;;
78799;SDS011;68148;55.328;86.106;2024-03-08T03:42:32;28.48;;;10.65;;
78799;SDS011;68148;55.328;86.106;2024-03-08T03:44:58;27.77;;;10.88;;
78799;SDS011;68148;55.328;86.106;2024-03-08T03:47:24;25.42;;;9.88;;
78799;SDS011;68148;55.328;86.106;2024-03-08T03:49:53;18.50;;;7.75;;
78799;SDS011;68148;55.328;86.106;2024-03-08T03:52:31;26.38;;;9.10;;
78799;SDS011;68148;55.328;86.106;2024-03-08T03:54:59;27.60;;;10.15;;
78799;SDS011;68148;55.328;86.106;2024-03-08T03:57:25;29.55;;;10.80;;
78799;SDS011;68148;55.328;86.106;2024-03-08T03:59:51;6.18;;;4.80;;
78799;SDS011;68148;55.328;86.106;2024-03-08T04:02:19;32.75;;;11.32;;
78799;SDS011;68148;55.328;86.106;2024-03-08T04:04:45;30.95;;;10.57;;
78799;SDS011;68148;55.328;86.106;2024-03-08T04:07:12;26.92;;;9.68;;
78799;SDS011;68148;55.328;86.106;2024-03-08T04:09:38;26.20;;;10.73;;
78799;SDS011;68148;55.328;86.106;2024-03-08T04:12:04;19.92;;;8.70;;
78799;SDS011;68148;55.328;86.106;2024-03-08T04:14:30;27.77;;;10.55;;
78799;SDS011;68148;55.328;86.106;2024-03-08T04:17:02;33.45;;;11.80;;
78799;SDS011;68148;55.328;86.106;2024-03-08T04:19:28;12.05;;;4.38;;
78799;SDS011;68148;55.328;86.106;2024-03-08T04:21:59;13.80;;;4.40;;
78799;SDS011;68148;55.328;86.106;2024-03-08T04:24:24;19.50;;;5.90;;
78799;SDS011;68148;55.328;86.106;2024-03-08T04:26:50;22.25;;;7.90;;
78799;SDS011;68148;55.328;86.106;2024-03-08T04:29:19;20.17;;;6.50;;
78799;SDS011;68148;55.328;86.106;2024-03-08T04:31:47;12.23;;;4.88;;
78799;SDS011;68148;55.328;86.106;2024-03-08T04:34:13;19.10;;;5.22;;
78799;SDS011;68148;55.328;86.106;2024-03-08T04:36:38;10.32;;;4.35;;
78799;SDS011;68148;55.328;86.106;2024-03-08T04:39:04;14.65;;;5.65;;
78799;SDS011;68148;55.328;86.106;2024-03-08T04:41:31;21.30;;;7.60;;
78799;SDS011;68148;55.328;86.106;2024-03-08T04:43:59;8.10;;;3.60;;
78799;SDS011;68148;55.328;86.106;2024-03-08T04:46:26;10.65;;;4.07;;
78799;SDS011;68148;55.328;86.106;2024-03-08T04:48:51;10.13;;;4.60;;
78799;SDS011;68148;55.328;86.106;2024-03-08T04:51:21;19.33;;;5.18;;
78799;SDS011;68148;55.328;86.106;2024-03-08T04:53:47;8.73;;;3.70;;
78799;SDS011;68148;55.328;86.106;2024-03-08T04:56:14;13.85;;;4.30;;
78799;SDS011;68148;55.328;86.106;2024-03-08T04:58:39;13.13;;;5.00;;
78799;SDS011;68148;55.328;86.106;2024-03-08T05:01:08;7.35;;;3.35;;
78799;SDS011;68148;55.328;86.106;2024-03-08T05:03:34;8.88;;;3.03;;
78799;SDS011;68148;55.328;86.106;2024-03-08T05:06:00;7.93;;;3.78;;
78799;SDS011;68148;55.328;86.106;2024-03-08T05:08:26;15.98;;;4.57;;
78799;SDS011;68148;55.328;86.106;2024-03-08T05:10:52;11.88;;;3.80;;
78799;SDS011;68148;55.328;86.106;2024-03-08T05:13:20;8.77;;;3.30;;
78799;SDS011;68148;55.328;86.106;2024-03-08T05:15:49;10.95;;;2.67;;
78799;SDS011;68148;55.328;86.106;2024-03-08T05:18:15;9.85;;;3.70;;
78799;SDS011;68148;55.328;86.106;2024-03-08T05:20:41;5.65;;;3.25;;
78799;SDS011;68148;55.328;86.106;2024-03-08T05:23:08;13.23;;;3.47;;
78799;SDS011;68148;55.328;86.106;2024-03-08T05:25:35;13.32;;;4.72;;
78799;SDS011;68148;55.328;86.106;2024-03-08T05:28:01;8.10;;;3.33;;
78799;SDS011;68148;55.328;86.106;2024-03-08T05:30:28;16.20;;;6.05;;
78799;SDS011;68148;55.328;86.106;2024-03-08T05:33:04;14.88;;;4.63;;
78799;SDS011;68148;55.328;86.106;2024-03-08T05:35:30;15.13;;;4.22;;
78799;SDS011;68148;55.328;86.106;2024-03-08T05:38:08;6.07;;;2.60;;
78799;SDS011;68148;55.328;86.106;2024-03-08T05:40:37;11.82;;;3.25;;
78799;SDS011;68148;55.328;86.106;2024-03-08T05:43:09;13.68;;;5.68;;
78799;SDS011;68148;55.328;86.106;2024-03-08T05:45:36;15.32;;;6.05;;
78799;SDS011;68148;55.328;86.106;2024-03-08T05:48:04;18.50;;;5.28;;
78799;SDS011;68148;55.328;86.106;2024-03-08T05:50:30;13.90;;;5.38;;
78799;SDS011;68148;55.328;86.106;2024-03-08T05:52:56;12.25;;;4.35;;
78799;SDS011;68148;55.328;86.106;2024-03-08T05:55:21;17.73;;;4.28;;
78799;SDS011;68148;55.328;86.106;2024-03-08T05:57:47;13.77;;;5.97;;
78799;SDS011;68148;55.328;86.106;2024-03-08T06:00:13;11.60;;;4.50;;
78799;SDS011;68148;55.328;86.106;2024-03-08T06:02:39;16.27;;;5.85;;
78799;SDS011;68148;55.328;86.106;2024-03-08T06:05:06;13.52;;;5.43;;
78799;SDS011;68148;55.328;86.106;2024-03-08T06:07:36;12.18;;;4.18;;
78799;SDS011;68148;55.328;86.106;2024-03-08T06:10:02;7.25;;;2.72;;
78799;SDS011;68148;55.328;86.106;2024-03-08T06:12:28;15.85;;;5.47;;
78799;SDS011;68148;55.328;86.106;2024-03-08T06:14:54;10.55;;;4.38;;
78799;SDS011;68148;55.328;86.106;2024-03-08T06:17:20;9.20;;;5.07;;
78799;SDS011;68148;55.328;86.106;2024-03-08T06:19:46;16.15;;;4.45;;
78799;SDS011;68148;55.328;86.106;2024-03-08T06:22:13;9.80;;;3.55;;
78799;SDS011;68148;55.328;86.106;2024-03-08T06:24:39;21.10;;;6.53;;
78799;SDS011;68148;55.328;86.106;2024-03-08T06:27:05;11.73;;;4.75;;
78799;SDS011;68148;55.328;86.106;2024-03-08T06:29:31;17.23;;;6.22;;
78799;SDS011;68148;55.328;86.106;2024-03-08T06:31:57;20.52;;;8.18;;
78799;SDS011;68148;55.328;86.106;2024-03-08T06:34:23;21.63;;;7.30;;
78799;SDS011;68148;55.328;86.106;2024-03-08T06:36:48;23.25;;;6.78;;
78799;SDS011;68148;55.328;86.106;2024-03-08T06:39:15;18.48;;;7.38;;
78799;SDS011;68148;55.328;86.106;2024-03-08T06:41:41;14.35;;;5.82;;
78799;SDS011;68148;55.328;86.106;2024-03-08T06:44:06;18.15;;;6.93;;
78799;SDS011;68148;55.328;86.106;2024-03-08T06:46:32;19.10;;;6.40;;
78799;SDS011;68148;55.328;86.106;2024-03-08T06:48:58;20.08;;;8.00;;
78799;SDS011;68148;55.328;86.106;2024-03-08T06:51:24;20.63;;;8.43;;
78799;SDS011;68148;55.328;86.106;2024-03-08T06:53:50;19.77;;;6.60;;
78799;SDS011;68148;55.328;86.106;2024-03-08T06:56:15;20.77;;;7.85;;
78799;SDS011;68148;55.328;86.106;2024-03-08T06:58:41;20.00;;;7.78;;
78799;SDS011;68148;55.328;86.106;2024-03-08T07:01:07;18.65;;;7.25;;
78799;SDS011;68148;55.328;86.106;2024-03-08T07:03:33;23.88;;;7.85;;
78799;SDS011;68148;55.328;86.106;2024-03-08T07:05:59;19.02;;;7.15;;
78799;SDS011;68148;55.328;86.106;2024-03-08T07:08:26;18.95;;;6.55;;
78799;SDS011;68148;55.328;86.106;2024-03-08T07:10:53;15.45;;;5.78;;
78799;SDS011;68148;55.328;86.106;2024-03-08T07:13:19;15.65;;;5.50;;
78799;SDS011;68148;55.328;86.106;2024-03-08T07:15:45;16.52;;;6.13;;
78799;SDS011;68148;55.328;86.106;2024-03-08T07:18:11;17.80;;;5.65;;
78799;SDS011;68148;55.328;86.106;2024-03-08T07:20:37;7.82;;;3.78;;
78799;SDS011;68148;55.328;86.106;2024-03-08T07:23:03;22.40;;;7.25;;
78799;SDS011;68148;55.328;86.106;2024-03-08T07:25:30;6.82;;;3.60;;
78799;SDS011;68148;55.328;86.106;2024-03-08T07:27:56;10.75;;;3.90;;
78799;SDS011;68148;55.328;86.106;2024-03-08T07:30:25;14.02;;;5.50;;
78799;SDS011;68148;55.328;86.106;2024-03-08T07:32:59;16.73;;;5.65;;
78799;SDS011;68148;55.328;86.106;2024-03-08T07:35:27;9.00;;;4.18;;
78799;SDS011;68148;55.328;86.106;2024-03-08T07:37:56;10.82;;;4.88;;
78799;SDS011;68148;55.328;86.106;2024-03-08T07:40:24;15.88;;;6.30;;
78799;SDS011;68148;55.328;86.106;2024-03-08T07:42:51;15.52;;;5.78;;
78799;SDS011;68148;55.328;86.106;2024-03-08T07:45:28;20.98;;;6.05;;
78799;SDS011;68148;55.328;86.106;2024-03-08T07:48:07;7.03;;;4.45;;
78799;SDS011;68148;55.328;86.106;2024-03-08T07:50:33;15.20;;;5.07;;
78799;SDS011;68148;55.328;86.106;2024-03-08T07:52:59;12.98;;;4.72;;
78799;SDS011;68148;55.328;86.106;2024-03-08T07:55:25;13.43;;;4.43;;
78799;SDS011;68148;55.328;86.106;2024-03-08T07:57:51;16.50;;;6.78;;
78799;SDS011;68148;55.328;86.106;2024-03-08T08:00:19;15.55;;;5.55;;
78799;SDS011;68148;55.328;86.106;2024-03-08T08:02:45;14.32;;;4.38;;
78799;SDS011;68148;55.328;86.106;2024-03-08T08:05:11;17.58;;;5.53;;
78799;SDS011;68148;55.328;86.106;2024-03-08T08:07:37;7.68;;;4.45;;
78799;SDS011;68148;55.328;86.106;2024-03-08T08:10:03;3.95;;;1.55;;
78799;SDS011;68148;55.328;86.106;2024-03-08T08:12:29;12.82;;;5.35;;
78799;SDS011;68148;55.328;86.106;2024-03-08T08:14:55;13.48;;;5.40;;
78799;SDS011;68148;55.328;86.106;2024-03-08T08:17:20;13.75;;;4.88;;
78799;SDS011;68148;55.328;86.106;2024-03-08T08:19:56;12.02;;;3.92;;
78799;SDS011;68148;55.328;86.106;2024-03-08T08:22:22;17.88;;;6.82;;
78799;SDS011;68148;55.328;86.106;2024-03-08T08:24:57;15.77;;;6.47;;
78799;SDS011;68148;55.328;86.106;2024-03-08T08:27:23;16.63;;;6.00;;
78799;SDS011;68148;55.328;86.106;2024-03-08T08:29:50;17.27;;;7.03;;
78799;SDS011;68148;55.328;86.106;2024-03-08T08:32:16;17.10;;;7.25;;
78799;SDS011;68148;55.328;86.106;2024-03-08T08:34:43;11.05;;;5.78;;
78799;SDS011;68148;55.328;86.106;2024-03-08T08:37:09;19.20;;;6.93;;
78799;SDS011;68148;55.328;86.106;2024-03-08T08:39:35;14.75;;;5.13;;
78799;SDS011;68148;55.328;86.106;2024-03-08T08:42:01;18.00;;;5.88;;
78799;SDS011;68148;55.328;86.106;2024-03-08T08:44:39;19.80;;;6.30;;
78799;SDS011;68148;55.328;86.106;2024-03-08T08:47:05;13.35;;;4.72;;
78799;SDS011;68148;55.328;86.106;2024-03-08T08:49:31;15.15;;;6.05;;
78799;SDS011;68148;55.328;86.106;2024-03-08T08:51:57;13.32;;;5.35;;
78799;SDS011;68148;55.328;86.106;2024-03-08T08:54:23;8.75;;;4.13;;
78799;SDS011;68148;55.328;86.106;2024-03-08T08:56:49;6.47;;;1.95;;
78799;SDS011;68148;55.328;86.106;2024-03-08T08:59:15;10.38;;;6.53;;
78799;SDS011;68148;55.328;86.106;2024-03-08T09:01:41;11.80;;;5.43;;
78799;SDS011;68148;55.328;86.106;2024-03-08T09:04:06;15.82;;;6.38;;
78799;SDS011;68148;55.328;86.106;2024-03-08T09:06:32;14.65;;;5.72;;
78799;SDS011;68148;55.328;86.106;2024-03-08T09:08:58;10.15;;;4.65;;
78799;SDS011;68148;55.328;86.106;2024-03-08T09:11:24;14.48;;;5.32;;
78799;SDS011;68148;55.328;86.106;2024-03-08T09:13:49;10.05;;;4.22;;
78799;SDS011;68148;55.328;86.106;2024-03-08T09:16:16;11.57;;;5.75;;
78799;SDS011;68148;55.328;86.106;2024-03-08T09:18:41;13.85;;;5.72;;
78799;SDS011;68148;55.328;86.106;2024-03-08T09:21:07;10.02;;;3.90;;
78799;SDS011;68148;55.328;86.106;2024-03-08T09:23:34;6.90;;;2.63;;
78799;SDS011;68148;55.328;86.106;2024-03-08T09:25:59;15.20;;;4.75;;
78799;SDS011;68148;55.328;86.106;2024-03-08T09:28:25;13.90;;;3.63;;
78799;SDS011;68148;55.328;86.106;2024-03-08T09:30:51;15.52;;;5.38;;
78799;SDS011;68148;55.328;86.106;2024-03-08T09:33:16;5.30;;;2.17;;
78799;SDS011;68148;55.328;86.106;2024-03-08T09:35:42;11.75;;;4.90;;
78799;SDS011;68148;55.328;86.106;2024-03-08T09:38:08;14.55;;;6.57;;
78799;SDS011;68148;55.328;86.106;2024-03-08T09:40:34;10.93;;;4.28;;
78799;SDS011;68148;55.328;86.106;2024-03-08T09:43:00;7.90;;;3.88;;
78799;SDS011;68148;55.328;86.106;2024-03-08T09:45:26;11.10;;;4.15;;
78799;SDS011;68148;55.328;86.106;2024-03-08T09:47:54;6.63;;;3.28;;
78799;SDS011;68148;55.328;86.106;2024-03-08T09:50:20;18.42;;;5.07;;
78799;SDS011;68148;55.328;86.106;2024-03-08T09:52:46;14.15;;;6.20;;
78799;SDS011;68148;55.328;86.106;2024-03-08T09:55:15;4.65;;;2.83;;
78799;SDS011;68148;55.328;86.106;2024-03-08T09:57:42;4.05;;;2.33;;
78799;SDS011;68148;55.328;86.106;2024-03-08T10:00:09;9.75;;;4.43;;
78799;SDS011;68148;55.328;86.106;2024-03-08T10:02:38;12.63;;;4.80;;
78799;SDS011;68148;55.328;86.106;2024-03-08T10:05:04;9.98;;;4.20;;
78799;SDS011;68148;55.328;86.106;2024-03-08T10:07:30;7.85;;;3.10;;
78799;SDS011;68148;55.328;86.106;2024-03-08T10:09:56;3.55;;;2.58;;
78799;SDS011;68148;55.328;86.106;2024-03-08T10:12:21;6.68;;;3.25;;
78799;SDS011;68148;55.328;86.106;2024-03-08T10:14:47;12.68;;;3.80;;
78799;SDS011;68148;55.328;86.106;2024-03-08T10:17:13;3.80;;;2.30;;
78799;SDS011;68148;55.328;86.106;2024-03-08T10:19:39;14.05;;;5.40;;
78799;SDS011;68148;55.328;86.106;2024-03-08T10:22:17;23.70;;;6.75;;
78799;SDS011;68148;55.328;86.106;2024-03-08T10:24:47;28.77;;;7.05;;
78799;SDS011;68148;55.328;86.106;2024-03-08T10:27:13;10.43;;;5.65;;
78799;SDS011;68148;55.328;86.106;2024-03-08T10:29:39;8.60;;;3.83;;
78799;SDS011;68148;55.328;86.106;2024-03-08T10:32:06;23.35;;;7.22;;
78799;SDS011;68148;55.328;86.106;2024-03-08T10:34:32;10.02;;;5.15;;
78799;SDS011;68148;55.328;86.106;2024-03-08T10:37:01;9.95;;;3.60;;
78799;SDS011;68148;55.328;86.106;2024-03-08T10:39:29;19.88;;;6.95;;
78799;SDS011;68148;55.328;86.106;2024-03-08T10:42:01;7.25;;;2.40;;
78799;SDS011;68148;55.328;86.106;2024-03-08T10:49:31;8.98;;;3.75;;
78799;SDS011;68148;55.328;86.106;2024-03-08T10:54:29;14.73;;;6.40;;
78799;SDS011;68148;55.328;86.106;2024-03-08T10:56:56;13.88;;;5.13;;
78799;SDS011;68148;55.328;86.106;2024-03-08T10:59:22;13.85;;;5.63;;
78799;SDS011;68148;55.328;86.106;2024-03-08T11:01:48;11.65;;;4.53;;
78799;SDS011;68148;55.328;86.106;2024-03-08T11:04:14;22.85;;;9.27;;
78799;SDS011;68148;55.328;86.106;2024-03-08T11:12:17;19.17;;;8.55;;
78799;SDS011;68148;55.328;86.106;2024-03-08T11:14:55;22.42;;;7.57;;
78799;SDS011;68148;55.328;86.106;2024-03-08T11:19:56;26.10;;;8.98;;
78799;SDS011;68148;55.328;86.106;2024-03-08T11:22:28;21.60;;;7.88;;
78799;SDS011;68148;55.328;86.106;2024-03-08T11:27:31;10.00;;;4.78;;
78799;SDS011;68148;55.328;86.106;2024-03-08T11:30:01;14.32;;;5.80;;
78799;SDS011;68148;55.328;86.106;2024-03-08T11:32:30;6.90;;;2.80;;
78799;SDS011;68148;55.328;86.106;2024-03-08T11:34:56;6.20;;;3.35;;
78799;SDS011;68148;55.328;86.106;2024-03-08T11:37:33;7.63;;;2.58;;
78799;SDS011;68148;55.328;86.106;2024-03-08T11:40:06;21.08;;;8.13;;
78799;SDS011;68148;55.328;86.106;2024-03-08T11:42:37;20.20;;;6.72;;
78799;SDS011;68148;55.328;86.106;2024-03-08T11:45:07;15.93;;;7.10;;
78799;SDS011;68148;55.328;86.106;2024-03-08T11:47:34;17.35;;;5.80;;
78799;SDS011;68148;55.328;86.106;2024-03-08T11:50:00;8.55;;;4.55;;
78799;SDS011;68148;55.328;86.106;2024-03-08T11:52:34;12.48;;;6.85;;
78799;SDS011;68148;55.328;86.106;2024-03-08T11:55:00;14.18;;;6.13;;
78799;SDS011;68148;55.328;86.106;2024-03-08T11:57:26;8.80;;;3.20;;
78799;SDS011;68148;55.328;86.106;2024-03-08T11:59:52;11.52;;;6.88;;
78799;SDS011;68148;55.328;86.106;2024-03-08T12:02:19;16.90;;;4.97;;
78799;SDS011;68148;55.328;86.106;2024-03-08T12:04:44;4.68;;;2.17;;
78799;SDS011;68148;55.328;86.106;2024-03-08T12:07:10;7.00;;;3.53;;
78799;SDS011;68148;55.328;86.106;2024-03-08T12:09:37;21.77;;;8.90;;
78799;SDS011;68148;55.328;86.106;2024-03-08T12:12:03;30.25;;;10.50;;
78799;SDS011;68148;55.328;86.106;2024-03-08T12:14:33;21.00;;;9.45;;
78799;SDS011;68148;55.328;86.106;2024-03-08T12:17:00;18.25;;;6.63;;
78799;SDS011;68148;55.328;86.106;2024-03-08T12:19:27;11.98;;;6.38;;
78799;SDS011;68148;55.328;86.106;2024-03-08T12:21:54;18.77;;;8.52;;
78799;SDS011;68148;55.328;86.106;2024-03-08T12:24:22;26.67;;;11.02;;
78799;SDS011;68148;55.328;86.106;2024-03-08T12:26:49;22.52;;;10.27;;
78799;SDS011;68148;55.328;86.106;2024-03-08T12:29:19;36.65;;;12.75;;
78799;SDS011;68148;55.328;86.106;2024-03-08T12:31:57;14.27;;;8.18;;
78799;SDS011;68148;55.328;86.106;2024-03-08T12:34:24;27.33;;;9.73;;
78799;SDS011;68148;55.328;86.106;2024-03-08T12:36:50;19.58;;;8.55;;
78799;SDS011;68148;55.328;86.106;2024-03-08T12:39:18;12.85;;;6.20;;
78799;SDS011;68148;55.328;86.106;2024-03-08T12:41:45;13.68;;;6.50;;
78799;SDS011;68148;55.328;86.106;2024-03-08T12:44:11;10.32;;;4.43;;
78799;SDS011;68148;55.328;86.106;2024-03-08T12:46:37;23.80;;;8.50;;
78799;SDS011;68148;55.328;86.106;2024-03-08T12:49:03;17.98;;;8.07;;
78799;SDS011;68148;55.328;86.106;2024-03-08T12:51:29;18.00;;;5.85;;
78799;SDS011;68148;55.328;86.106;2024-03-08T12:53:54;16.73;;;6.65;;
78799;SDS011;68148;55.328;86.106;2024-03-08T12:56:28;12.85;;;6.05;;
78799;SDS011;68148;55.328;86.106;2024-03-08T12:58:56;12.63;;;5.50;;
78799;SDS011;68148;55.328;86.106;2024-03-08T13:01:22;12.95;;;5.70;;
78799;SDS011;68148;55.328;86.106;2024-03-08T13:03:48;17.30;;;7.75;;
78799;SDS011;68148;55.328;86.106;2024-03-08T13:06:13;26.83;;;8.38;;
78799;SDS011;68148;55.328;86.106;2024-03-08T13:08:39;17.98;;;6.78;;
78799;SDS011;68148;55.328;86.106;2024-03-08T13:11:06;15.27;;;5.22;;
78799;SDS011;68148;55.328;86.106;2024-03-08T13:13:35;21.88;;;9.48;;
78799;SDS011;68148;55.328;86.106;2024-03-08T13:16:01;34.40;;;14.35;;
78799;SDS011;68148;55.328;86.106;2024-03-08T13:18:28;27.75;;;12.40;;
78799;SDS011;68148;55.328;86.106;2024-03-08T13:20:54;23.77;;;10.52;;
78799;SDS011;68148;55.328;86.106;2024-03-08T13:23:20;25.25;;;12.45;;
78799;SDS011;68148;55.328;86.106;2024-03-08T13:25:46;45.38;;;15.43;;
78799;SDS011;68148;55.328;86.106;2024-03-08T13:28:12;33.63;;;12.70;;
78799;SDS011;68148;55.328;86.106;2024-03-08T13:30:38;45.05;;;18.73;;
78799;SDS011;68148;55.328;86.106;2024-03-08T13:33:04;58.15;;;23.55;;
78799;SDS011;68148;55.328;86.106;2024-03-08T13:35:33;60.70;;;24.10;;
78799;SDS011;68148;55.328;86.106;2024-03-08T13:37:59;90.72;;;28.88;;
78799;SDS011;68148;55.328;86.106;2024-03-08T13:40:26;106.25;;;36.45;;
78799;SDS011;68148;55.328;86.106;2024-03-08T13:42:52;79.05;;;34.33;;
78799;SDS011;68148;55.328;86.106;2024-03-08T13:45:18;110.90;;;41.38;;
78799;SDS011;68148;55.328;86.106;2024-03-08T13:47:45;140.10;;;47.80;;
78799;SDS011;68148;55.328;86.106;2024-03-08T13:50:14;106.55;;;40.67;;
78799;SDS011;68148;55.328;86.106;2024-03-08T13:52:40;91.28;;;37.13;;
78799;SDS011;68148;55.328;86.106;2024-03-08T13:55:06;57.63;;;22.90;;
78799;SDS011;68148;55.328;86.106;2024-03-08T13:57:35;38.80;;;17.95;;
78799;SDS011;68148;55.328;86.106;2024-03-08T14:00:02;34.15;;;14.48;;
78799;SDS011;68148;55.328;86.106;2024-03-08T14:02:33;50.80;;;18.85;;
78799;SDS011;68148;55.328;86.106;2024-03-08T14:05:10;40.10;;;14.68;;
78799;SDS011;68148;55.328;86.106;2024-03-08T14:07:36;43.85;;;17.10;;
78799;SDS011;68148;55.328;86.106;2024-03-08T14:10:02;29.77;;;12.63;;
78799;SDS011;68148;55.328;86.106;2024-03-08T14:12:28;33.28;;;12.80;;
78799;SDS011;68148;55.328;86.106;2024-03-08T14:14:54;32.00;;;13.75;;
78799;SDS011;68148;55.328;86.106;2024-03-08T14:17:20;43.17;;;13.10;;
78799;SDS011;68148;55.328;86.106;2024-03-08T14:19:46;39.00;;;13.52;;
78799;SDS011;68148;55.328;86.106;2024-03-08T14:22:12;40.92;;;14.63;;
78799;SDS011;68148;55.328;86.106;2024-03-08T14:24:38;35.88;;;8.77;;
78799;SDS011;68148;55.328;86.106;2024-03-08T14:27:04;29.05;;;12.38;;
78799;SDS011;68148;55.328;86.106;2024-03-08T14:29:30;23.35;;;10.20;;
78799;SDS011;68148;55.328;86.106;2024-03-08T14:31:56;15.43;;;9.57;;
78799;SDS011;68148;55.328;86.106;2024-03-08T14:34:22;20.25;;;9.85;;
78799;SDS011;68148;55.328;86.106;2024-03-08T14:36:48;24.15;;;8.45;;